Kezdőlap
METAR-TAF:

METAR-TAF

Repülőterek :

Lebanon, New Hampshire, Amerikai Egyesült Államok

földrajzi szélesség: 43-37-38N, földrajzi hosszúság: 072-18-21W, magasság: 182 m

Jelenlegi meteorológiai megfigyelések

A jelentés 8 perccel ezelõtt készült, 07:23 UTC
Szélcsend
Hőmérséklet 13°C
Páratartalom 94%
Légköri nyomás 1022 hPa
Látótávolság: 12.9 km
Szakadozott felhőzet 1100 lábon

METAR: KLEB 260723Z AUTO 00000KT 8SM BKN011 13/12 A3017 RMK AO2 T01330117

Idő: 03:31 (07:31 UTC)

Előrejelzés

A jelentés 2 órával és 11 perccel ezelõtt készült, 05:20 UTC
Az előrejelzés 26-én 06 óra UTC és 27-én 06 óra UTC között érvényes
Északi szél kt
Látótávolság: 10 km
Szakadozott felhőzet 1500 lábon
Borult 7000 lábon
26-én 1300 órától UTC szerint
Déli szél 3 kt
Látótávolság: 10 km
Kevés felhő 25000 lábon

TAF: KLEB 260520Z 2606/2706 00000KT P6SM BKN015 OVC070 FM261300 19003KT P6SM FEW250

Meteorológiai megfigyelések és előrejelzések több, mint 4000 repülőtéren (METAR és TAF jelentéseket).

A térképen piros és sárga pontok jelzik az elérhető meteorológiai állomásokat.

Mozgassa az egeret a pont fölött, hogy megjelenjen az állomás neve.

Azután kattintson az időjárási megfigyelések és előrejelzések megtekintéséhez.

A térkép megváltoztatása: kattintson a fekete keresztel jelölt zöld gombra ráközelítéshez, a vonallal jelölt zöld gombra távolításhoz, vagy a zöld nyilakra a szomszédos térképek eléréséhez.


METAR-TAF: